Meath Environmental Platform

Observations for Trim Patrick St

Time AQI Temp °C Hum % Pres Pa CO μg/m³ H₂S μg/m³ NO μg/m³ NO₂ μg/m³ O₃ μg/m³ SO₂ μg/m³ PM1 μg/m³ PM2.5 μg/m³ PM10 μg/m³
Wednesday 26 August 2026
15:46 2 30.4 50 69,648 0 0 2.76 7.03 76.56 11.7 5.43 11.02 12.13
15:44 2 30.2 54 69,846 0 0 3.48 3.1 69.66 11.35 6.29 12.18 13.4
15:43 2 30 55 69,982 0 0 3.54 1.43 63.76 11.19 6.29 11.38 12.51
15:42 2 29.8 56 70,158 0 0 3.42 8.69 64.29 10.82 7.14 12 13.2
15:41 2 29.6 51 70,354 0 0 2.76 11.9 71.25 10.11 7.14 13.22 14.54
15:40 2 29.4 58 70,607 0 0 3.44 4.94 65.19 10.41 6.29 11.17 12.29
15:38 2 29 53 71,272 0 0 2.81 14.51 67.84 8.4 6.29 11.53 12.68
15:37 2 28.8 53 71,690 0 0 2.79 7.4 67.25 9.71 6.29 11.49 12.64
15:36 2 28.6 56 72,277 0 0 2.89 10.04 65.84 9.31 6.29 10.58 11.63
15:34 2 28.2 54 73,526 0 0 2.84 11.58 65.19 8.08 8 13.68 15.04
15:33 2 28 58 74,198 0 0 3.19 8.83 65.14 9.9 6.29 11.84 13.02
15:31 2 27.5 58 74,982 0 0 3.15 23.42 83.98 7.34 5.43 9.64 10.61
15:30 2 27.2 58 75,006 0 0 3.13 16.47 60.33 6.73 8 13.37 14.71
15:27 2 26.6 61 75,230 0 0 3.1 19.74 55.55 7.67 6.29 11.62 12.78
15:26 2 26.5 59 75,222 0 0 2.78 16.49 68.87 7.43 7.14 12.51 13.76
15:25 2 26.5 59 75,204 0 0 2.82 12.88 60.35 7.05 8 13.29 14.62
15:24 2 26.5 58 75,192 0 0 2.76 13.81 80.82 6.74 6.29 11.13 12.24
15:23 2 26.5 58 75,184 0 0 2.93 7.93 64.71 6.31 7.14 12.62 13.88
15:22 2 26.5 62 75,226 0 0 3.3 10.92 57.82 6.42 8.86 12.29 13.52
15:21 2 26.5 59 75,259 0 0 3.07 15.15 54.96 6.67 8 13.26 14.59